createdAt,value
2017-12-01T00:02:11.586Z,69.29
2017-12-01T00:04:37.933Z,69.35
2017-12-01T00:07:04.368Z,69.06
2017-12-01T00:09:30.802Z,69.00
2017-12-01T00:11:57.240Z,68.84
2017-12-01T00:14:24.390Z,68.88
2017-12-01T00:16:50.826Z,68.86
2017-12-01T00:19:17.138Z,68.78
2017-12-01T00:21:43.577Z,69.21
2017-12-01T00:24:10.129Z,69.44
2017-12-01T00:26:36.563Z,69.73
2017-12-01T00:29:02.928Z,69.86
2017-12-01T00:31:30.148Z,70.34
2017-12-01T00:33:56.582Z,70.55
2017-12-01T00:36:23.016Z,70.59
2017-12-01T00:38:49.347Z,70.74
2017-12-01T00:41:15.783Z,70.89
2017-12-01T00:43:42.225Z,70.88
2017-12-01T00:46:08.755Z,71.22
2017-12-01T00:48:35.810Z,70.72
2017-12-01T00:51:02.238Z,70.10
2017-12-01T00:53:28.672Z,69.99
2017-12-01T00:55:55.109Z,69.95
2017-12-01T00:58:21.440Z,69.70
2017-12-01T01:00:47.772Z,69.46
2017-12-01T01:03:14.206Z,69.18
2017-12-01T01:05:41.461Z,69.31
2017-12-01T01:08:07.792Z,69.23
2017-12-01T01:10:34.329Z,68.50
2017-12-01T01:13:00.695Z,68.58
2017-12-01T01:15:27.097Z,68.43
2017-12-01T01:17:53.531Z,67.86
2017-12-01T01:20:19.864Z,67.62
2017-12-01T01:22:47.090Z,67.63
2017-12-01T01:25:13.551Z,67.38
2017-12-01T01:27:39.986Z,67.45
2017-12-01T01:30:06.523Z,67.90
2017-12-01T01:34:59.290Z,67.91
2017-12-01T01:37:25.644Z,67.55
2017-12-01T01:39:52.875Z,67.48
2017-12-01T01:42:19.310Z,64.47
2017-12-01T01:44:45.748Z,61.32
2017-12-01T01:47:12.180Z,61.18
2017-12-01T01:49:38.614Z,63.04
2017-12-01T01:52:05.048Z,64.44
2017-12-01T01:54:31.506Z,62.69
2017-12-01T01:56:58.652Z,63.40
2017-12-01T01:59:25.071Z,63.89
2017-12-01T02:01:51.401Z,65.55
2017-12-01T02:04:17.855Z,66.86
2017-12-01T02:06:44.271Z,67.72
2017-12-01T02:09:10.705Z,67.37
2017-12-01T02:11:37.101Z,67.75
2017-12-01T02:14:04.292Z,68.38
2017-12-01T02:16:30.728Z,68.32
2017-12-01T02:18:57.094Z,68.95
2017-12-01T02:21:23.494Z,68.87
2017-12-01T02:23:49.824Z,69.23
2017-12-01T02:26:16.260Z,69.64
2017-12-01T02:28:42.683Z,70.37
2017-12-01T02:31:09.827Z,70.64
2017-12-01T02:33:36.268Z,70.05
2017-12-01T02:36:02.716Z,71.24
2017-12-01T02:38:29.150Z,71.47
2017-12-01T02:40:55.585Z,71.55
2017-12-01T02:43:22.018Z,71.89
2017-12-01T02:45:48.390Z,72.87
2017-12-01T02:48:15.707Z,73.21
2017-12-01T02:50:42.142Z,73.00
2017-12-01T02:53:08.596Z,73.03
2017-12-01T02:55:35.012Z,73.45
2017-12-01T02:58:01.445Z,74.27
2017-12-01T03:00:27.759Z,74.81
2017-12-01T03:02:54.178Z,74.82
2017-12-01T03:05:21.344Z,74.57
2017-12-01T03:07:47.812Z,74.89
2017-12-01T03:10:14.254Z,75.17
2017-12-01T03:12:40.668Z,75.56
2017-12-01T03:15:07.145Z,76.07
2017-12-01T03:17:33.579Z,76.58
2017-12-01T03:20:00.048Z,76.92
2017-12-01T03:22:27.349Z,77.34
2017-12-01T03:24:53.763Z,77.72
2017-12-01T03:27:20.197Z,77.89
2017-12-01T03:29:46.632Z,78.42
2017-12-01T03:32:13.067Z,78.57
2017-12-01T03:34:39.501Z,78.70
2017-12-01T03:37:05.936Z,79.01
2017-12-01T03:39:33.088Z,78.90
2017-12-01T03:41:59.459Z,79.31
2017-12-01T03:44:25.818Z,79.51
2017-12-01T03:46:52.259Z,79.91
2017-12-01T03:49:18.702Z,80.15
2017-12-01T03:51:45.092Z,80.05
2017-12-01T03:54:11.490Z,80.30
2017-12-01T03:56:38.744Z,80.53
2017-12-01T03:59:05.281Z,80.89
2017-12-01T04:01:31.715Z,80.99
2017-12-01T04:03:58.150Z,81.03
2017-12-01T04:06:24.584Z,80.92
2017-12-01T04:08:50.914Z,80.92
2017-12-01T04:11:17.352Z,80.97
2017-12-01T04:13:44.608Z,81.25
2017-12-01T04:16:10.972Z,81.28
2017-12-01T04:18:37.376Z,81.22
2017-12-01T04:21:03.807Z,80.98
2017-12-01T04:23:30.241Z,81.43
2017-12-01T04:25:56.660Z,81.78
2017-12-01T04:28:23.103Z,81.32
2017-12-01T04:30:50.264Z,81.33
2017-12-01T04:33:16.696Z,81.74
2017-12-01T04:35:43.132Z,81.69
2017-12-01T04:38:09.566Z,81.94
2017-12-01T04:40:35.932Z,81.94
2017-12-01T04:43:02.333Z,81.92
2017-12-01T04:45:28.776Z,81.70
2017-12-01T04:47:55.815Z,81.50
2017-12-01T04:50:22.250Z,81.83
2017-12-01T04:52:48.686Z,82.01
2017-12-01T04:55:15.122Z,81.57
2017-12-01T04:57:41.555Z,81.55
2017-12-01T05:00:07.992Z,81.63
2017-12-01T05:02:34.426Z,81.68
2017-12-01T05:05:01.515Z,81.69
2017-12-01T05:07:27.874Z,81.75
2017-12-01T05:09:54.340Z,82.04
2017-12-01T05:12:20.780Z,82.18
2017-12-01T05:14:47.214Z,82.11
2017-12-01T05:17:13.648Z,82.24
2017-12-01T05:19:40.084Z,82.33
2017-12-01T05:22:07.335Z,82.32
2017-12-01T05:24:33.667Z,82.27
2017-12-01T05:27:00.106Z,81.86
2017-12-01T05:29:26.538Z,81.80
2017-12-01T05:31:52.973Z,81.40
2017-12-01T05:34:19.408Z,81.75
2017-12-01T05:36:45.842Z,81.73
2017-12-01T05:39:12.993Z,81.77
2017-12-01T05:41:39.427Z,81.88
2017-12-01T05:44:05.861Z,81.94
2017-12-01T05:46:32.347Z,81.68
2017-12-01T05:48:58.750Z,81.42
2017-12-01T05:51:25.095Z,81.24
2017-12-01T05:53:51.496Z,81.16
2017-12-01T05:56:18.697Z,81.44
2017-12-01T05:58:45.083Z,81.37
2017-12-01T06:01:11.517Z,80.53
2017-12-01T06:03:37.951Z,80.46
2017-12-01T06:06:04.569Z,80.23
2017-12-01T06:08:31.003Z,80.33
2017-12-01T06:10:57.461Z,80.32
2017-12-01T06:13:23.897Z,80.31
2017-12-01T06:15:50.330Z,80.26
2017-12-01T06:18:16.693Z,80.25
2017-12-01T06:20:43.097Z,80.27
2017-12-01T06:23:09.859Z,80.07
2017-12-01T06:25:36.273Z,79.74
2017-12-01T06:28:02.710Z,79.63
2017-12-01T06:30:29.150Z,79.25
2017-12-01T06:32:55.576Z,79.29
2017-12-01T06:35:22.012Z,79.44
2017-12-01T06:37:48.336Z,79.51
2017-12-01T06:40:14.779Z,79.32
2017-12-01T06:42:41.423Z,79.34
2017-12-01T06:45:07.852Z,79.25
2017-12-01T06:47:34.287Z,79.13
2017-12-01T06:50:00.825Z,78.89
2017-12-01T06:52:27.221Z,79.11
2017-12-01T06:54:54.001Z,79.19
2017-12-01T06:57:20.435Z,79.28
2017-12-01T06:59:46.873Z,79.23
2017-12-01T07:02:13.411Z,79.14
2017-12-01T07:04:39.841Z,78.95
2017-12-01T07:07:06.277Z,78.96
2017-12-01T07:09:32.712Z,78.99
2017-12-01T07:11:59.043Z,79.54
2017-12-01T07:16:56.865Z,79.47
2017-12-01T07:19:23.192Z,79.44
2017-12-01T07:21:49.594Z,79.31
2017-12-01T07:24:16.066Z,79.04
2017-12-01T07:26:42.874Z,79.35
2017-12-01T07:29:09.308Z,79.07
2017-12-01T07:31:35.619Z,78.97
2017-12-01T07:34:02.074Z,78.95
2017-12-01T07:36:28.472Z,79.34
2017-12-01T07:38:54.841Z,79.82
2017-12-01T07:41:21.204Z,79.98
2017-12-01T07:43:47.711Z,79.72
2017-12-01T07:46:14.267Z,80.17
2017-12-01T07:48:40.682Z,79.68
2017-12-01T07:51:06.999Z,79.45
2017-12-01T07:53:33.449Z,79.79
2017-12-01T07:55:59.884Z,80.05
2017-12-01T07:58:27.138Z,80.62
2017-12-01T08:00:53.799Z,80.38
2017-12-01T08:03:20.214Z,80.49
2017-12-01T08:05:46.964Z,80.42
2017-12-01T08:08:13.388Z,80.45
2017-12-01T08:10:39.831Z,80.50
2017-12-01T08:13:06.257Z,80.85
2017-12-01T08:15:32.795Z,80.40
2017-12-01T08:17:59.160Z,80.50
2017-12-01T08:20:25.568Z,79.97
2017-12-01T08:22:52.199Z,80.17
2017-12-01T08:25:18.737Z,79.85
2017-12-01T08:27:45.203Z,79.56
2017-12-01T08:30:11.538Z,79.66
2017-12-01T08:32:37.939Z,79.14
2017-12-01T08:35:04.622Z,79.72
2017-12-01T08:37:31.120Z,79.29
2017-12-01T08:39:57.551Z,79.67
2017-12-01T08:42:23.882Z,79.70
2017-12-01T08:44:50.421Z,79.92
2017-12-01T08:47:16.856Z,80.16
2017-12-01T08:49:43.360Z,80.12
2017-12-01T08:52:10.581Z,79.77
2017-12-01T08:54:36.926Z,80.32
2017-12-01T08:57:03.309Z,80.64
2017-12-01T08:59:29.744Z,81.13
2017-12-01T09:01:56.184Z,81.32
2017-12-01T09:04:22.749Z,81.31
2017-12-01T09:06:49.151Z,81.67
2017-12-01T09:09:15.690Z,81.62
2017-12-01T09:11:42.122Z,81.50
2017-12-01T09:14:08.806Z,81.35
2017-12-01T09:16:35.130Z,81.17
2017-12-01T09:19:01.839Z,81.55
2017-12-01T09:21:28.326Z,81.72
2017-12-01T09:23:55.013Z,81.72
2017-12-01T09:26:21.446Z,81.14
2017-12-01T09:28:47.887Z,81.39
2017-12-01T09:31:14.827Z,81.46
2017-12-01T09:33:41.474Z,81.57
2017-12-01T09:36:08.037Z,81.74
2017-12-01T09:38:34.415Z,81.58
2017-12-01T09:41:00.874Z,81.67
2017-12-01T09:43:27.307Z,82.08
2017-12-01T09:45:54.160Z,82.02
2017-12-01T09:48:20.895Z,81.94
2017-12-01T09:50:47.329Z,81.85
2017-12-01T09:53:14.180Z,82.10
2017-12-01T09:55:40.608Z,81.70
2017-12-01T09:58:07.029Z,81.66
2017-12-01T10:00:33.477Z,81.57
2017-12-01T10:02:59.780Z,82.07
2017-12-01T10:05:26.644Z,81.61
2017-12-01T10:07:53.092Z,81.79
2017-12-01T10:10:19.473Z,82.19
2017-12-01T10:12:46.475Z,82.59
2017-12-01T10:15:13.111Z,82.59
2017-12-01T10:17:39.682Z,82.04
2017-12-01T10:20:06.202Z,82.18
2017-12-01T10:22:32.697Z,82.16
2017-12-01T10:24:59.686Z,81.80
2017-12-01T10:27:26.372Z,81.75
2017-12-01T10:29:52.815Z,82.30
2017-12-01T10:32:19.657Z,82.08
2017-12-01T10:34:46.124Z,82.22
2017-12-01T10:37:12.559Z,82.45
2017-12-01T10:39:38.993Z,82.64
2017-12-01T10:42:05.427Z,82.61
2017-12-01T10:44:31.893Z,82.39
2017-12-01T10:46:58.296Z,82.29
2017-12-01T10:49:25.530Z,82.06
2017-12-01T10:51:51.881Z,82.22
2017-12-01T10:54:18.349Z,82.31
2017-12-01T10:56:44.752Z,81.89
2017-12-01T10:59:11.287Z,81.66
2017-12-01T11:01:37.757Z,81.50
2017-12-01T11:04:04.428Z,81.66
2017-12-01T11:06:31.100Z,81.60
2017-12-01T11:08:57.840Z,81.37
2017-12-01T11:11:24.750Z,81.49
2017-12-01T11:13:51.805Z,81.38
2017-12-01T11:16:18.584Z,81.47
2017-12-01T11:18:45.689Z,81.29
2017-12-01T11:21:12.271Z,81.36
2017-12-01T11:23:38.705Z,81.33
2017-12-01T11:26:05.180Z,81.35
2017-12-01T11:28:31.554Z,81.37
2017-12-01T11:30:58.627Z,81.38
2017-12-01T11:33:25.060Z,81.47
2017-12-01T11:35:51.596Z,81.46
2017-12-01T11:38:19.157Z,81.12
2017-12-01T11:40:45.592Z,81.38
2017-12-01T11:43:12.232Z,81.35
2017-12-01T11:45:38.768Z,81.77
2017-12-01T11:48:05.305Z,81.96
2017-12-01T11:50:31.739Z,82.12
2017-12-01T11:52:58.281Z,82.36
2017-12-01T11:55:24.814Z,82.54
2017-12-01T11:57:51.181Z,82.26
2017-12-01T12:00:17.512Z,82.43
2017-12-01T12:02:45.040Z,82.78
2017-12-01T12:05:11.576Z,83.02
2017-12-01T12:07:38.011Z,83.28
2017-12-01T12:10:04.446Z,83.34
2017-12-01T12:12:30.885Z,83.42
2017-12-01T12:14:57.425Z,83.73
2017-12-01T12:17:23.898Z,83.66
2017-12-01T12:19:50.288Z,83.54
2017-12-01T12:22:17.133Z,83.44
2017-12-01T12:24:43.565Z,83.38
2017-12-01T12:27:10.001Z,83.35
2017-12-01T12:29:36.434Z,83.41
2017-12-01T12:32:02.869Z,83.53
2017-12-01T12:34:29.406Z,83.49
2017-12-01T12:36:55.840Z,83.52
2017-12-01T12:39:22.215Z,83.47
2017-12-01T12:41:48.607Z,83.39
2017-12-01T12:44:15.759Z,83.32
2017-12-01T12:46:42.603Z,83.32
2017-12-01T12:49:09.045Z,83.31
2017-12-01T12:51:35.471Z,83.36
2017-12-01T12:54:01.840Z,83.36
2017-12-01T12:56:29.569Z,83.36
2017-12-01T12:58:58.352Z,83.21
2017-12-01T13:01:24.896Z,82.99
2017-12-01T13:03:51.204Z,82.94
2017-12-01T13:06:17.663Z,82.96
2017-12-01T13:08:44.098Z,82.89
2017-12-01T13:11:10.840Z,82.83
2017-12-01T13:13:37.275Z,82.76
2017-12-01T13:16:03.828Z,82.91
2017-12-01T13:18:30.328Z,82.99
2017-12-01T13:20:58.436Z,83.18
2017-12-01T13:23:25.063Z,83.16
2017-12-01T13:25:51.599Z,82.94
2017-12-01T13:28:18.083Z,83.02
2017-12-01T13:30:44.864Z,83.19
2017-12-01T13:33:12.347Z,83.28
2017-12-01T13:35:38.949Z,83.35
2017-12-01T13:38:06.638Z,83.45
2017-12-01T13:40:33.380Z,83.65
2017-12-01T13:43:00.126Z,83.64
2017-12-01T13:45:26.650Z,83.64
2017-12-01T13:47:53.196Z,84.01
2017-12-01T13:50:20.554Z,84.04
2017-12-01T13:52:47.090Z,83.98
2017-12-01T13:55:13.628Z,84.08
2017-12-01T13:57:40.368Z,84.30
2017-12-01T14:00:06.907Z,84.29
2017-12-01T14:02:33.442Z,84.26
2017-12-01T14:04:59.981Z,84.33
2017-12-01T14:07:27.029Z,84.44
2017-12-01T14:09:53.463Z,84.58
2017-12-01T14:12:20.007Z,84.73
2017-12-01T14:14:46.947Z,85.01
2017-12-01T14:17:13.388Z,85.08
2017-12-01T14:19:39.716Z,85.18
2017-12-01T14:22:06.765Z,85.27
2017-12-01T14:24:33.300Z,85.24
2017-12-01T14:26:59.735Z,85.28
2017-12-01T14:29:26.169Z,85.39
2017-12-01T14:31:52.708Z,85.54
2017-12-01T14:34:19.755Z,85.73
2017-12-01T14:36:46.291Z,85.86
2017-12-01T14:39:12.726Z,85.99
2017-12-01T14:41:39.097Z,85.92
2017-12-01T14:44:05.596Z,85.95
2017-12-01T14:46:32.274Z,85.98
2017-12-01T14:48:58.965Z,86.05
2017-12-01T14:51:25.515Z,86.16
2017-12-01T14:53:51.949Z,86.12
2017-12-01T14:56:18.416Z,86.16
2017-12-01T14:58:45.098Z,86.11
2017-12-01T15:01:11.560Z,86.18
2017-12-01T15:03:38.302Z,86.30
2017-12-01T15:06:04.841Z,86.26
2017-12-01T15:08:31.273Z,86.19
2017-12-01T15:10:57.708Z,86.15
2017-12-01T15:13:24.113Z,86.20
2017-12-01T15:15:50.578Z,86.22
2017-12-01T15:18:17.030Z,86.43
2017-12-01T15:20:43.446Z,86.57
2017-12-01T15:23:09.780Z,86.74
2017-12-01T15:25:36.322Z,86.88
2017-12-01T15:28:02.750Z,87.18
2017-12-01T15:30:29.123Z,87.34
2017-12-01T15:32:55.517Z,87.29
2017-12-01T15:35:22.058Z,87.40
2017-12-01T15:37:48.492Z,87.51
2017-12-01T15:40:14.926Z,87.48
2017-12-01T15:42:41.462Z,87.64
2017-12-01T15:45:08.306Z,87.80
2017-12-01T15:47:34.756Z,87.64
2017-12-01T15:50:01.312Z,87.50
2017-12-01T15:52:27.714Z,87.42
2017-12-01T15:54:54.150Z,87.41
2017-12-01T15:57:20.584Z,87.43
2017-12-01T15:59:47.017Z,87.52
2017-12-01T16:02:13.451Z,87.70
2017-12-01T16:04:39.885Z,88.05
2017-12-01T16:07:06.832Z,88.13
2017-12-01T16:09:33.266Z,88.42
2017-12-01T16:14:41.946Z,88.88
2017-12-01T16:19:40.509Z,88.52
2017-12-01T16:22:06.864Z,88.55
2017-12-01T16:24:33.220Z,88.68
2017-12-01T16:26:59.663Z,88.96
2017-12-01T16:29:26.105Z,88.90
2017-12-01T16:31:52.554Z,88.80
2017-12-01T16:34:18.990Z,88.90
2017-12-01T16:36:45.422Z,89.09
2017-12-01T16:39:11.857Z,88.81
2017-12-01T16:41:38.226Z,88.59
2017-12-01T16:44:04.622Z,88.62
2017-12-01T16:46:31.059Z,88.78
2017-12-01T16:48:57.426Z,88.83
2017-12-01T16:51:23.830Z,88.59
2017-12-01T16:53:50.258Z,88.62
2017-12-01T16:56:16.782Z,88.37
2017-12-01T16:58:43.233Z,88.31
2017-12-01T17:01:09.674Z,88.53
2017-12-01T17:03:36.921Z,88.70
2017-12-01T17:06:03.284Z,88.87
2017-12-01T17:08:29.686Z,89.09
2017-12-01T17:10:56.120Z,89.34
2017-12-01T17:13:22.559Z,89.29
2017-12-01T17:15:48.992Z,89.15
2017-12-01T17:18:15.433Z,89.14
2017-12-01T17:20:42.577Z,89.28
2017-12-01T17:23:09.012Z,89.27
2017-12-01T17:25:35.447Z,88.96
2017-12-01T17:28:01.899Z,87.65
2017-12-01T17:30:28.416Z,87.65
2017-12-01T17:32:54.871Z,87.58
2017-12-01T17:35:21.287Z,87.91
2017-12-01T17:40:21.053Z,87.96
2017-12-01T17:42:47.387Z,87.66
2017-12-01T17:45:13.783Z,87.23
2017-12-01T17:47:40.121Z,87.71
2017-12-01T17:50:06.550Z,87.96
2017-12-01T17:52:33.003Z,88.42
2017-12-01T17:54:59.440Z,88.72
2017-12-01T17:57:25.854Z,88.95
2017-12-01T17:59:52.288Z,89.01
2017-12-01T18:02:18.654Z,89.04
2017-12-01T18:04:45.102Z,88.86
2017-12-01T18:07:11.409Z,88.66
2017-12-01T18:09:37.842Z,88.70
2017-12-01T18:12:04.263Z,88.80
2017-12-01T18:14:30.692Z,88.65
2017-12-01T18:16:57.125Z,88.45
2017-12-01T18:19:23.432Z,88.58
2017-12-01T18:21:50.814Z,88.19
2017-12-01T18:24:17.246Z,88.15
2017-12-01T18:26:43.735Z,88.38
2017-12-01T18:29:10.118Z,88.26
2017-12-01T18:31:36.552Z,88.14
2017-12-01T18:34:02.988Z,88.26
2017-12-01T18:36:29.423Z,88.33
2017-12-01T18:38:56.576Z,88.45
2017-12-01T18:41:23.007Z,88.43
2017-12-01T18:43:49.339Z,88.13
2017-12-01T18:46:15.775Z,88.23
2017-12-01T18:48:42.317Z,88.60
2017-12-01T18:51:08.746Z,88.76
2017-12-01T18:53:35.183Z,88.45
2017-12-01T18:56:02.435Z,88.53
2017-12-01T18:58:28.870Z,88.58
2017-12-01T19:00:55.202Z,88.78
2017-12-01T19:03:21.636Z,88.84
2017-12-01T19:05:48.071Z,88.87
2017-12-01T19:08:14.505Z,88.44
2017-12-01T19:10:40.940Z,88.61
2017-12-01T19:13:08.092Z,88.78
2017-12-01T19:15:34.424Z,88.66
2017-12-01T19:18:00.858Z,88.61
2017-12-01T19:20:27.190Z,88.34
2017-12-01T19:22:53.626Z,88.62
2017-12-01T19:25:20.060Z,88.88
2017-12-01T19:27:46.499Z,88.84
2017-12-01T19:30:13.579Z,89.14
2017-12-01T19:32:39.977Z,89.15
2017-12-01T19:35:06.413Z,89.39
2017-12-01T19:37:32.847Z,89.53
2017-12-01T19:39:59.283Z,89.33
2017-12-01T19:42:25.716Z,89.26
2017-12-01T19:44:52.152Z,89.40
2017-12-01T19:47:19.288Z,89.51
2017-12-01T19:49:45.737Z,89.72
2017-12-01T19:52:12.070Z,90.03
2017-12-01T19:54:38.606Z,89.87
2017-12-01T19:57:05.041Z,89.81
2017-12-01T19:59:31.459Z,89.94
2017-12-01T20:01:57.911Z,89.98
2017-12-01T20:04:25.168Z,90.21
2017-12-01T20:06:51.533Z,90.20
2017-12-01T20:09:17.933Z,90.30
2017-12-01T20:11:44.367Z,90.48
2017-12-01T20:14:10.801Z,90.39
2017-12-01T20:16:37.167Z,90.41
2017-12-01T20:19:03.568Z,90.09
2017-12-01T20:21:30.825Z,90.41
2017-12-01T20:23:57.255Z,90.64
2017-12-01T20:26:23.700Z,90.73
2017-12-01T20:28:50.125Z,90.75
2017-12-01T20:31:16.617Z,90.66
2017-12-01T20:33:42.994Z,90.86
2017-12-01T20:36:09.326Z,90.78
2017-12-01T20:38:36.682Z,91.14
2017-12-01T20:41:03.118Z,90.96
2017-12-01T20:43:29.552Z,91.08
2017-12-01T20:45:56.645Z,91.32
2017-12-01T20:48:23.139Z,91.63
2017-12-01T20:50:49.573Z,91.84
2017-12-01T20:53:16.007Z,91.43
2017-12-01T20:55:42.443Z,91.73
2017-12-01T20:58:08.878Z,91.93
2017-12-01T21:00:35.313Z,91.97
2017-12-01T21:03:01.747Z,91.92
2017-12-01T21:05:28.078Z,92.00
2017-12-01T21:07:54.554Z,92.27
2017-12-01T21:10:20.886Z,92.01
2017-12-01T21:12:48.053Z,91.80
2017-12-01T21:15:14.533Z,92.08
2017-12-01T21:17:40.969Z,92.35
2017-12-01T21:20:07.404Z,92.29
2017-12-01T21:22:33.837Z,92.45
2017-12-01T21:25:00.169Z,92.40
2017-12-01T21:27:26.604Z,92.37
2017-12-01T21:29:53.755Z,92.23
2017-12-01T21:32:20.088Z,92.37
2017-12-01T21:34:46.420Z,92.39
2017-12-01T21:37:12.855Z,92.81
2017-12-01T21:39:39.295Z,92.83
2017-12-01T21:42:05.748Z,92.88
2017-12-01T21:44:32.159Z,93.05
2017-12-01T21:46:59.397Z,93.25
2017-12-01T21:49:25.827Z,93.11
2017-12-01T21:51:52.269Z,93.15
2017-12-01T21:54:18.753Z,93.01
2017-12-01T21:56:45.151Z,93.26
2017-12-01T21:59:11.605Z,93.62
2017-12-01T22:01:37.958Z,93.53
2017-12-01T22:04:05.179Z,93.41
2017-12-01T22:06:31.542Z,93.57
2017-12-01T22:08:57.938Z,93.55
2017-12-01T22:11:24.372Z,93.73
2017-12-01T22:13:50.811Z,93.71
2017-12-01T22:16:17.227Z,93.55
2017-12-01T22:18:43.699Z,93.70
2017-12-01T22:21:10.729Z,93.54
2017-12-01T22:23:37.162Z,93.59
2017-12-01T22:26:03.596Z,93.75
2017-12-01T22:28:30.066Z,93.84
2017-12-01T22:30:56.464Z,94.04
2017-12-01T22:33:22.899Z,93.85
2017-12-01T22:35:49.298Z,93.64
2017-12-01T22:38:16.627Z,93.64
2017-12-01T22:40:43.022Z,93.86
2017-12-01T22:43:09.393Z,93.96
2017-12-01T22:45:35.788Z,93.98
2017-12-01T22:48:02.223Z,93.58
2017-12-01T22:50:28.658Z,93.66
2017-12-01T22:52:55.092Z,93.74
2017-12-01T22:55:22.266Z,93.65
2017-12-01T22:57:48.681Z,93.63
2017-12-01T23:00:15.135Z,93.54
2017-12-01T23:02:41.548Z,93.60
2017-12-01T23:05:07.916Z,93.16
2017-12-01T23:07:34.519Z,93.12
2017-12-01T23:10:00.954Z,92.84
2017-12-01T23:12:28.037Z,93.24
2017-12-01T23:14:54.437Z,93.38
2017-12-01T23:17:20.877Z,93.33
2017-12-01T23:19:47.238Z,93.08
2017-12-01T23:22:13.641Z,93.05
2017-12-01T23:24:39.975Z,93.17
2017-12-01T23:27:06.406Z,93.05
2017-12-01T23:29:33.546Z,92.99
2017-12-01T23:31:59.992Z,92.78
2017-12-01T23:34:26.452Z,92.77
2017-12-01T23:36:52.861Z,93.01
2017-12-01T23:39:19.296Z,92.86
2017-12-01T23:41:45.731Z,93.22
2017-12-01T23:44:12.064Z,93.52
2017-12-01T23:46:39.247Z,93.14
2017-12-01T23:49:05.668Z,93.06
2017-12-01T23:51:32.085Z,93.08
2017-12-01T23:53:58.518Z,92.95
2017-12-01T23:56:24.953Z,92.84
2017-12-01T23:58:51.388Z,92.72
